sensor_id;sensor_type;location;lat;lon;timestamp;P1;durP1;ratioP1;P2;durP2;ratioP2
29412;SDS011;16389;50.126;8.450;2022-12-19T00:00:45;23.40;;;10.45;;
29412;SDS011;16389;50.126;8.450;2022-12-19T00:03:11;32.47;;;11.40;;
29412;SDS011;16389;50.126;8.450;2022-12-19T00:05:37;33.45;;;10.85;;
29412;SDS011;16389;50.126;8.450;2022-12-19T00:08:05;32.78;;;11.80;;
29412;SDS011;16389;50.126;8.450;2022-12-19T00:10:37;23.42;;;10.32;;
29412;SDS011;16389;50.126;8.450;2022-12-19T00:13:03;28.75;;;11.70;;
29412;SDS011;16389;50.126;8.450;2022-12-19T00:15:29;28.73;;;12.18;;
29412;SDS011;16389;50.126;8.450;2022-12-19T00:17:54;30.27;;;10.65;;
29412;SDS011;16389;50.126;8.450;2022-12-19T00:20:20;20.52;;;9.90;;
29412;SDS011;16389;50.126;8.450;2022-12-19T00:22:46;25.42;;;9.32;;
29412;SDS011;16389;50.126;8.450;2022-12-19T00:25:11;24.17;;;8.30;;
29412;SDS011;16389;50.126;8.450;2022-12-19T00:27:37;28.33;;;11.15;;
29412;SDS011;16389;50.126;8.450;2022-12-19T00:30:02;24.88;;;11.00;;
29412;SDS011;16389;50.126;8.450;2022-12-19T00:32:28;27.15;;;10.85;;
29412;SDS011;16389;50.126;8.450;2022-12-19T00:34:55;32.25;;;9.85;;
29412;SDS011;16389;50.126;8.450;2022-12-19T00:37:21;20.00;;;9.40;;
29412;SDS011;16389;50.126;8.450;2022-12-19T00:39:46;21.92;;;9.73;;
29412;SDS011;16389;50.126;8.450;2022-12-19T00:42:12;30.65;;;10.18;;
29412;SDS011;16389;50.126;8.450;2022-12-19T00:44:37;24.38;;;9.73;;
29412;SDS011;16389;50.126;8.450;2022-12-19T00:47:03;26.33;;;11.98;;
29412;SDS011;16389;50.126;8.450;2022-12-19T00:49:28;26.70;;;8.80;;
29412;SDS011;16389;50.126;8.450;2022-12-19T00:51:54;26.63;;;10.75;;
29412;SDS011;16389;50.126;8.450;2022-12-19T00:54:22;23.45;;;9.18;;
29412;SDS011;16389;50.126;8.450;2022-12-19T00:56:47;27.70;;;10.07;;
29412;SDS011;16389;50.126;8.450;2022-12-19T00:59:13;26.30;;;9.57;;
29412;SDS011;16389;50.126;8.450;2022-12-19T01:01:39;27.75;;;10.63;;
29412;SDS011;16389;50.126;8.450;2022-12-19T01:04:06;24.25;;;9.60;;
29412;SDS011;16389;50.126;8.450;2022-12-19T01:06:33;23.42;;;10.63;;
29412;SDS011;16389;50.126;8.450;2022-12-19T01:08:59;22.80;;;9.50;;
29412;SDS011;16389;50.126;8.450;2022-12-19T01:11:24;24.40;;;9.63;;
29412;SDS011;16389;50.126;8.450;2022-12-19T01:14:12;19.42;;;10.30;;
29412;SDS011;16389;50.126;8.450;2022-12-19T01:16:38;22.60;;;10.02;;
29412;SDS011;16389;50.126;8.450;2022-12-19T01:19:04;35.15;;;11.13;;
29412;SDS011;16389;50.126;8.450;2022-12-19T01:21:29;21.67;;;10.18;;
29412;SDS011;16389;50.126;8.450;2022-12-19T01:23:55;30.25;;;11.07;;
29412;SDS011;16389;50.126;8.450;2022-12-19T01:26:20;27.45;;;9.73;;
29412;SDS011;16389;50.126;8.450;2022-12-19T01:28:46;29.65;;;12.15;;
29412;SDS011;16389;50.126;8.450;2022-12-19T01:31:12;20.42;;;10.52;;
29412;SDS011;16389;50.126;8.450;2022-12-19T01:33:40;24.45;;;10.30;;
29412;SDS011;16389;50.126;8.450;2022-12-19T01:36:06;21.25;;;11.65;;
29412;SDS011;16389;50.126;8.450;2022-12-19T01:38:33;28.00;;;9.27;;
29412;SDS011;16389;50.126;8.450;2022-12-19T01:40:59;33.55;;;11.23;;
29412;SDS011;16389;50.126;8.450;2022-12-19T01:43:27;26.35;;;10.20;;
29412;SDS011;16389;50.126;8.450;2022-12-19T01:46:04;31.42;;;11.73;;
29412;SDS011;16389;50.126;8.450;2022-12-19T01:48:37;20.98;;;9.57;;
29412;SDS011;16389;50.126;8.450;2022-12-19T01:51:10;20.80;;;8.73;;
29412;SDS011;16389;50.126;8.450;2022-12-19T01:53:42;16.30;;;8.15;;
29412;SDS011;16389;50.126;8.450;2022-12-19T01:56:10;27.80;;;10.70;;
29412;SDS011;16389;50.126;8.450;2022-12-19T01:58:37;28.98;;;11.60;;
29412;SDS011;16389;50.126;8.450;2022-12-19T02:01:07;31.25;;;11.82;;
29412;SDS011;16389;50.126;8.450;2022-12-19T02:03:33;25.13;;;10.27;;
29412;SDS011;16389;50.126;8.450;2022-12-19T02:06:01;25.52;;;10.88;;
29412;SDS011;16389;50.126;8.450;2022-12-19T02:08:29;33.30;;;12.07;;
29412;SDS011;16389;50.126;8.450;2022-12-19T02:10:56;28.83;;;11.90;;
29412;SDS011;16389;50.126;8.450;2022-12-19T02:13:21;19.63;;;10.70;;
29412;SDS011;16389;50.126;8.450;2022-12-19T02:18:55;20.40;;;9.70;;
29412;SDS011;16389;50.126;8.450;2022-12-19T02:21:28;27.10;;;11.52;;
29412;SDS011;16389;50.126;8.450;2022-12-19T02:32:32;16.52;;;10.18;;
29412;SDS011;16389;50.126;8.450;2022-12-19T02:37:45;20.58;;;9.95;;
29412;SDS011;16389;50.126;8.450;2022-12-19T02:40:22;28.80;;;9.57;;
29412;SDS011;16389;50.126;8.450;2022-12-19T02:42:55;28.02;;;10.30;;
29412;SDS011;16389;50.126;8.450;2022-12-19T02:45:23;30.65;;;9.93;;
29412;SDS011;16389;50.126;8.450;2022-12-19T02:47:52;27.33;;;10.60;;
29412;SDS011;16389;50.126;8.450;2022-12-19T02:50:18;29.67;;;11.27;;
29412;SDS011;16389;50.126;8.450;2022-12-19T02:52:44;31.13;;;12.23;;
29412;SDS011;16389;50.126;8.450;2022-12-19T02:55:13;21.70;;;10.35;;
29412;SDS011;16389;50.126;8.450;2022-12-19T03:01:42;21.60;;;9.75;;
29412;SDS011;16389;50.126;8.450;2022-12-19T03:04:06;22.00;;;9.95;;
29412;SDS011;16389;50.126;8.450;2022-12-19T03:06:39;24.27;;;10.63;;
29412;SDS011;16389;50.126;8.450;2022-12-19T03:11:44;28.92;;;11.52;;
29412;SDS011;16389;50.126;8.450;2022-12-19T03:14:14;29.17;;;12.82;;
29412;SDS011;16389;50.126;8.450;2022-12-19T03:16:43;22.83;;;10.10;;
29412;SDS011;16389;50.126;8.450;2022-12-19T03:19:10;25.73;;;9.55;;
29412;SDS011;16389;50.126;8.450;2022-12-19T03:21:44;32.03;;;11.93;;
29412;SDS011;16389;50.126;8.450;2022-12-19T03:24:14;25.88;;;11.45;;
29412;SDS011;16389;50.126;8.450;2022-12-19T03:29:31;30.83;;;11.88;;
29412;SDS011;16389;50.126;8.450;2022-12-19T03:32:04;25.73;;;10.57;;
29412;SDS011;16389;50.126;8.450;2022-12-19T03:37:08;25.17;;;11.07;;
29412;SDS011;16389;50.126;8.450;2022-12-19T03:39:38;20.27;;;11.02;;
29412;SDS011;16389;50.126;8.450;2022-12-19T03:42:06;24.90;;;10.07;;
29412;SDS011;16389;50.126;8.450;2022-12-19T03:44:52;23.63;;;9.95;;
29412;SDS011;16389;50.126;8.450;2022-12-19T03:47:21;31.50;;;10.00;;
29412;SDS011;16389;50.126;8.450;2022-12-19T03:49:52;24.65;;;11.80;;
29412;SDS011;16389;50.126;8.450;2022-12-19T03:55:07;29.98;;;11.27;;
29412;SDS011;16389;50.126;8.450;2022-12-19T03:57:42;23.50;;;10.70;;
29412;SDS011;16389;50.126;8.450;2022-12-19T04:00:14;27.48;;;10.38;;
29412;SDS011;16389;50.126;8.450;2022-12-19T04:02:43;21.42;;;10.60;;
29412;SDS011;16389;50.126;8.450;2022-12-19T04:05:17;36.78;;;12.32;;
29412;SDS011;16389;50.126;8.450;2022-12-19T04:07:48;33.55;;;11.63;;
29412;SDS011;16389;50.126;8.450;2022-12-19T04:10:19;33.92;;;13.30;;
29412;SDS011;16389;50.126;8.450;2022-12-19T04:12:49;24.05;;;11.02;;
29412;SDS011;16389;50.126;8.450;2022-12-19T04:15:38;29.52;;;11.52;;
29412;SDS011;16389;50.126;8.450;2022-12-19T04:18:26;30.17;;;11.13;;
29412;SDS011;16389;50.126;8.450;2022-12-19T04:20:54;26.63;;;10.95;;
29412;SDS011;16389;50.126;8.450;2022-12-19T04:23:36;19.95;;;8.65;;
29412;SDS011;16389;50.126;8.450;2022-12-19T04:26:16;27.25;;;10.85;;
29412;SDS011;16389;50.126;8.450;2022-12-19T04:28:45;23.27;;;11.05;;
29412;SDS011;16389;50.126;8.450;2022-12-19T04:31:15;30.27;;;11.75;;
29412;SDS011;16389;50.126;8.450;2022-12-19T04:33:43;17.95;;;10.20;;
29412;SDS011;16389;50.126;8.450;2022-12-19T04:36:09;22.85;;;9.80;;
29412;SDS011;16389;50.126;8.450;2022-12-19T04:38:35;28.88;;;11.10;;
29412;SDS011;16389;50.126;8.450;2022-12-19T04:41:01;31.80;;;12.18;;
29412;SDS011;16389;50.126;8.450;2022-12-19T04:43:26;19.98;;;9.80;;
29412;SDS011;16389;50.126;8.450;2022-12-19T04:45:52;30.45;;;11.27;;
29412;SDS011;16389;50.126;8.450;2022-12-19T04:48:18;27.00;;;12.23;;
29412;SDS011;16389;50.126;8.450;2022-12-19T04:50:43;25.08;;;11.48;;
29412;SDS011;16389;50.126;8.450;2022-12-19T04:53:09;22.92;;;12.60;;
29412;SDS011;16389;50.126;8.450;2022-12-19T04:55:35;24.65;;;10.57;;
29412;SDS011;16389;50.126;8.450;2022-12-19T04:58:04;36.63;;;12.13;;
29412;SDS011;16389;50.126;8.450;2022-12-19T05:00:30;27.70;;;12.13;;
29412;SDS011;16389;50.126;8.450;2022-12-19T05:02:56;33.40;;;11.75;;
29412;SDS011;16389;50.126;8.450;2022-12-19T05:05:21;19.33;;;10.35;;
29412;SDS011;16389;50.126;8.450;2022-12-19T05:07:47;23.00;;;11.95;;
29412;SDS011;16389;50.126;8.450;2022-12-19T05:10:13;29.77;;;12.18;;
29412;SDS011;16389;50.126;8.450;2022-12-19T05:12:38;30.25;;;13.23;;
29412;SDS011;16389;50.126;8.450;2022-12-19T05:15:04;22.67;;;9.50;;
29412;SDS011;16389;50.126;8.450;2022-12-19T05:17:30;21.55;;;11.10;;
29412;SDS011;16389;50.126;8.450;2022-12-19T05:19:56;34.13;;;12.10;;
29412;SDS011;16389;50.126;8.450;2022-12-19T05:22:21;35.88;;;12.20;;
29412;SDS011;16389;50.126;8.450;2022-12-19T05:24:47;28.33;;;11.27;;
29412;SDS011;16389;50.126;8.450;2022-12-19T05:27:12;26.00;;;10.85;;
29412;SDS011;16389;50.126;8.450;2022-12-19T05:29:38;32.97;;;12.82;;
29412;SDS011;16389;50.126;8.450;2022-12-19T05:32:04;25.85;;;10.18;;
29412;SDS011;16389;50.126;8.450;2022-12-19T05:34:29;32.75;;;12.75;;
29412;SDS011;16389;50.126;8.450;2022-12-19T05:36:55;31.73;;;12.77;;
29412;SDS011;16389;50.126;8.450;2022-12-19T05:39:20;29.02;;;13.40;;
29412;SDS011;16389;50.126;8.450;2022-12-19T05:41:46;27.17;;;11.30;;
29412;SDS011;16389;50.126;8.450;2022-12-19T05:44:12;24.35;;;11.48;;
29412;SDS011;16389;50.126;8.450;2022-12-19T05:46:37;25.42;;;11.65;;
29412;SDS011;16389;50.126;8.450;2022-12-19T05:49:03;29.08;;;12.38;;
29412;SDS011;16389;50.126;8.450;2022-12-19T05:51:28;29.27;;;11.98;;
29412;SDS011;16389;50.126;8.450;2022-12-19T05:53:54;28.02;;;10.93;;
29412;SDS011;16389;50.126;8.450;2022-12-19T05:56:20;42.17;;;12.52;;
29412;SDS011;16389;50.126;8.450;2022-12-19T05:58:47;39.15;;;13.68;;
29412;SDS011;16389;50.126;8.450;2022-12-19T06:03:40;20.35;;;11.40;;
29412;SDS011;16389;50.126;8.450;2022-12-19T06:06:07;36.67;;;10.82;;
29412;SDS011;16389;50.126;8.450;2022-12-19T06:08:34;31.20;;;13.13;;
29412;SDS011;16389;50.126;8.450;2022-12-19T06:11:01;31.42;;;12.88;;
29412;SDS011;16389;50.126;8.450;2022-12-19T06:13:28;31.08;;;12.52;;
29412;SDS011;16389;50.126;8.450;2022-12-19T06:18:23;26.35;;;12.98;;
29412;SDS011;16389;50.126;8.450;2022-12-19T06:23:30;24.92;;;10.98;;
29412;SDS011;16389;50.126;8.450;2022-12-19T06:25:57;28.90;;;11.70;;
29412;SDS011;16389;50.126;8.450;2022-12-19T06:28:23;25.60;;;10.68;;
29412;SDS011;16389;50.126;8.450;2022-12-19T06:30:50;25.60;;;12.35;;
29412;SDS011;16389;50.126;8.450;2022-12-19T06:33:16;36.95;;;13.25;;
29412;SDS011;16389;50.126;8.450;2022-12-19T06:35:42;29.98;;;12.77;;
29412;SDS011;16389;50.126;8.450;2022-12-19T06:38:08;26.45;;;12.40;;
29412;SDS011;16389;50.126;8.450;2022-12-19T06:40:34;24.63;;;11.38;;
29412;SDS011;16389;50.126;8.450;2022-12-19T06:43:18;29.85;;;12.82;;
29412;SDS011;16389;50.126;8.450;2022-12-19T06:45:43;31.55;;;12.75;;
29412;SDS011;16389;50.126;8.450;2022-12-19T06:48:09;29.90;;;14.23;;
29412;SDS011;16389;50.126;8.450;2022-12-19T06:50:34;28.80;;;12.77;;
29412;SDS011;16389;50.126;8.450;2022-12-19T06:53:00;35.75;;;14.38;;
29412;SDS011;16389;50.126;8.450;2022-12-19T06:55:33;31.52;;;11.70;;
29412;SDS011;16389;50.126;8.450;2022-12-19T06:58:00;28.20;;;12.32;;
29412;SDS011;16389;50.126;8.450;2022-12-19T07:00:26;31.50;;;12.88;;
29412;SDS011;16389;50.126;8.450;2022-12-19T07:02:51;31.33;;;12.70;;
29412;SDS011;16389;50.126;8.450;2022-12-19T07:05:18;24.95;;;11.63;;
29412;SDS011;16389;50.126;8.450;2022-12-19T07:07:44;23.80;;;12.18;;
29412;SDS011;16389;50.126;8.450;2022-12-19T07:10:09;32.55;;;12.32;;
29412;SDS011;16389;50.126;8.450;2022-12-19T07:12:35;29.75;;;12.68;;
29412;SDS011;16389;50.126;8.450;2022-12-19T07:15:01;29.58;;;12.43;;
29412;SDS011;16389;50.126;8.450;2022-12-19T07:17:26;27.92;;;13.40;;
29412;SDS011;16389;50.126;8.450;2022-12-19T07:19:53;28.80;;;11.30;;
29412;SDS011;16389;50.126;8.450;2022-12-19T07:22:21;30.92;;;13.65;;
29412;SDS011;16389;50.126;8.450;2022-12-19T07:24:53;33.20;;;12.10;;
29412;SDS011;16389;50.126;8.450;2022-12-19T07:27:19;27.55;;;11.80;;
29412;SDS011;16389;50.126;8.450;2022-12-19T07:29:46;37.00;;;13.88;;
29412;SDS011;16389;50.126;8.450;2022-12-19T07:32:12;22.75;;;11.75;;
29412;SDS011;16389;50.126;8.450;2022-12-19T07:34:38;32.05;;;14.05;;
29412;SDS011;16389;50.126;8.450;2022-12-19T07:37:03;37.92;;;14.07;;
29412;SDS011;16389;50.126;8.450;2022-12-19T07:39:29;32.40;;;13.30;;
29412;SDS011;16389;50.126;8.450;2022-12-19T07:41:54;33.90;;;12.82;;
29412;SDS011;16389;50.126;8.450;2022-12-19T07:44:20;28.17;;;11.10;;
29412;SDS011;16389;50.126;8.450;2022-12-19T07:46:45;27.02;;;13.00;;
29412;SDS011;16389;50.126;8.450;2022-12-19T07:49:11;29.40;;;13.65;;
29412;SDS011;16389;50.126;8.450;2022-12-19T07:51:37;26.92;;;12.23;;
29412;SDS011;16389;50.126;8.450;2022-12-19T07:54:06;24.38;;;11.70;;
29412;SDS011;16389;50.126;8.450;2022-12-19T07:56:32;29.55;;;11.95;;
29412;SDS011;16389;50.126;8.450;2022-12-19T07:58:57;31.20;;;12.95;;
29412;SDS011;16389;50.126;8.450;2022-12-19T08:01:23;27.02;;;12.23;;
29412;SDS011;16389;50.126;8.450;2022-12-19T08:03:48;33.47;;;12.35;;
29412;SDS011;16389;50.126;8.450;2022-12-19T08:06:15;33.88;;;12.50;;
29412;SDS011;16389;50.126;8.450;2022-12-19T08:08:40;26.92;;;13.00;;
29412;SDS011;16389;50.126;8.450;2022-12-19T08:11:10;33.70;;;12.35;;
29412;SDS011;16389;50.126;8.450;2022-12-19T08:13:37;25.58;;;12.82;;
29412;SDS011;16389;50.126;8.450;2022-12-19T08:16:04;35.55;;;14.45;;
29412;SDS011;16389;50.126;8.450;2022-12-19T08:18:29;19.95;;;10.65;;
29412;SDS011;16389;50.126;8.450;2022-12-19T08:20:55;25.75;;;12.00;;
29412;SDS011;16389;50.126;8.450;2022-12-19T08:23:21;25.23;;;14.57;;
29412;SDS011;16389;50.126;8.450;2022-12-19T08:25:46;29.27;;;14.77;;
29412;SDS011;16389;50.126;8.450;2022-12-19T08:28:12;30.95;;;12.32;;
29412;SDS011;16389;50.126;8.450;2022-12-19T08:30:38;29.55;;;11.80;;
29412;SDS011;16389;50.126;8.450;2022-12-19T08:33:04;42.38;;;14.48;;
29412;SDS011;16389;50.126;8.450;2022-12-19T08:35:30;30.42;;;14.40;;
29412;SDS011;16389;50.126;8.450;2022-12-19T08:37:56;30.33;;;11.90;;
29412;SDS011;16389;50.126;8.450;2022-12-19T08:40:22;25.85;;;11.65;;
29412;SDS011;16389;50.126;8.450;2022-12-19T08:42:48;20.80;;;11.88;;
29412;SDS011;16389;50.126;8.450;2022-12-19T08:45:14;25.13;;;12.68;;
29412;SDS011;16389;50.126;8.450;2022-12-19T08:47:43;23.20;;;11.85;;
29412;SDS011;16389;50.126;8.450;2022-12-19T08:50:09;27.67;;;14.45;;
29412;SDS011;16389;50.126;8.450;2022-12-19T08:52:35;34.47;;;13.57;;
29412;SDS011;16389;50.126;8.450;2022-12-19T08:55:01;35.47;;;14.18;;
29412;SDS011;16389;50.126;8.450;2022-12-19T08:57:28;29.95;;;12.77;;
29412;SDS011;16389;50.126;8.450;2022-12-19T08:59:54;31.10;;;12.30;;
29412;SDS011;16389;50.126;8.450;2022-12-19T09:02:19;33.25;;;12.50;;
29412;SDS011;16389;50.126;8.450;2022-12-19T09:04:45;36.45;;;14.95;;
29412;SDS011;16389;50.126;8.450;2022-12-19T09:07:11;24.27;;;12.77;;
29412;SDS011;16389;50.126;8.450;2022-12-19T09:09:37;34.90;;;13.50;;
29412;SDS011;16389;50.126;8.450;2022-12-19T09:12:03;34.63;;;12.05;;
29412;SDS011;16389;50.126;8.450;2022-12-19T09:14:32;21.13;;;11.55;;
29412;SDS011;16389;50.126;8.450;2022-12-19T09:19:24;27.23;;;11.02;;
29412;SDS011;16389;50.126;8.450;2022-12-19T09:21:50;25.50;;;12.70;;
29412;SDS011;16389;50.126;8.450;2022-12-19T09:24:15;34.47;;;13.52;;
29412;SDS011;16389;50.126;8.450;2022-12-19T09:26:41;25.08;;;12.52;;
29412;SDS011;16389;50.126;8.450;2022-12-19T09:29:08;38.50;;;14.05;;
29412;SDS011;16389;50.126;8.450;2022-12-19T09:31:33;28.55;;;13.35;;
29412;SDS011;16389;50.126;8.450;2022-12-19T09:33:59;31.20;;;14.45;;
29412;SDS011;16389;50.126;8.450;2022-12-19T09:36:24;29.25;;;14.20;;
29412;SDS011;16389;50.126;8.450;2022-12-19T09:38:54;38.75;;;16.15;;
29412;SDS011;16389;50.126;8.450;2022-12-19T09:47:30;25.73;;;12.13;;
29412;SDS011;16389;50.126;8.450;2022-12-19T09:49:37;43.17;;;12.35;;
29412;SDS011;16389;50.126;8.450;2022-12-19T09:54:36;26.98;;;13.30;;
29412;SDS011;16389;50.126;8.450;2022-12-19T09:57:12;34.72;;;13.23;;
29412;SDS011;16389;50.126;8.450;2022-12-19T09:59:44;31.65;;;13.00;;
29412;SDS011;16389;50.126;8.450;2022-12-19T10:02:19;34.30;;;12.23;;
29412;SDS011;16389;50.126;8.450;2022-12-19T10:05:16;36.78;;;14.18;;
29412;SDS011;16389;50.126;8.450;2022-12-19T10:08:02;31.67;;;13.32;;
29412;SDS011;16389;50.126;8.450;2022-12-19T10:15:51;27.75;;;12.70;;
29412;SDS011;16389;50.126;8.450;2022-12-19T10:27:14;32.27;;;14.50;;
29412;SDS011;16389;50.126;8.450;2022-12-19T10:32:36;34.20;;;13.35;;
29412;SDS011;16389;50.126;8.450;2022-12-19T10:35:11;22.77;;;12.70;;
29412;SDS011;16389;50.126;8.450;2022-12-19T10:37:56;32.13;;;13.85;;
29412;SDS011;16389;50.126;8.450;2022-12-19T10:40:50;29.55;;;13.52;;
29412;SDS011;16389;50.126;8.450;2022-12-19T10:47:00;28.33;;;11.93;;
29412;SDS011;16389;50.126;8.450;2022-12-19T10:49:10;23.17;;;12.38;;
29412;SDS011;16389;50.126;8.450;2022-12-19T10:51:51;30.60;;;13.90;;
29412;SDS011;16389;50.126;8.450;2022-12-19T10:54:22;22.67;;;12.63;;
29412;SDS011;16389;50.126;8.450;2022-12-19T10:56:49;42.45;;;13.93;;
29412;SDS011;16389;50.126;8.450;2022-12-19T10:59:15;35.10;;;14.20;;
29412;SDS011;16389;50.126;8.450;2022-12-19T11:01:43;28.88;;;13.95;;
29412;SDS011;16389;50.126;8.450;2022-12-19T11:04:13;33.90;;;13.85;;
29412;SDS011;16389;50.126;8.450;2022-12-19T11:11:46;38.53;;;16.40;;
29412;SDS011;16389;50.126;8.450;2022-12-19T11:14:26;37.33;;;15.65;;
29412;SDS011;16389;50.126;8.450;2022-12-19T11:16:53;32.67;;;15.80;;
29412;SDS011;16389;50.126;8.450;2022-12-19T11:19:29;27.90;;;13.93;;
29412;SDS011;16389;50.126;8.450;2022-12-19T11:22:03;30.88;;;14.35;;
29412;SDS011;16389;50.126;8.450;2022-12-19T11:24:42;35.63;;;14.70;;
29412;SDS011;16389;50.126;8.450;2022-12-19T11:27:34;39.33;;;14.68;;
29412;SDS011;16389;50.126;8.450;2022-12-19T11:30:17;29.42;;;14.57;;
29412;SDS011;16389;50.126;8.450;2022-12-19T11:32:46;34.50;;;14.63;;
29412;SDS011;16389;50.126;8.450;2022-12-19T11:35:15;47.72;;;17.85;;
29412;SDS011;16389;50.126;8.450;2022-12-19T11:37:50;33.38;;;14.77;;
29412;SDS011;16389;50.126;8.450;2022-12-19T11:40:21;35.40;;;14.25;;
29412;SDS011;16389;50.126;8.450;2022-12-19T11:43:14;39.08;;;14.85;;
29412;SDS011;16389;50.126;8.450;2022-12-19T11:56:34;36.08;;;15.05;;
29412;SDS011;16389;50.126;8.450;2022-12-19T11:59:00;45.42;;;15.77;;
29412;SDS011;16389;50.126;8.450;2022-12-19T12:07:04;36.28;;;14.25;;
29412;SDS011;16389;50.126;8.450;2022-12-19T12:09:34;31.55;;;14.23;;
29412;SDS011;16389;50.126;8.450;2022-12-19T12:12:12;30.67;;;14.30;;
29412;SDS011;16389;50.126;8.450;2022-12-19T12:17:46;26.63;;;12.00;;
29412;SDS011;16389;50.126;8.450;2022-12-19T12:25:45;34.50;;;13.70;;
29412;SDS011;16389;50.126;8.450;2022-12-19T12:36:48;38.25;;;14.10;;
29412;SDS011;16389;50.126;8.450;2022-12-19T12:43:08;32.25;;;14.93;;
29412;SDS011;16389;50.126;8.450;2022-12-19T12:48:01;33.65;;;12.98;;
29412;SDS011;16389;50.126;8.450;2022-12-19T12:50:34;25.23;;;13.75;;
29412;SDS011;16389;50.126;8.450;2022-12-19T12:53:05;35.97;;;14.05;;
29412;SDS011;16389;50.126;8.450;2022-12-19T12:55:34;32.42;;;13.02;;
29412;SDS011;16389;50.126;8.450;2022-12-19T12:58:04;32.15;;;14.75;;
29412;SDS011;16389;50.126;8.450;2022-12-19T13:03:03;21.53;;;10.70;;
29412;SDS011;16389;50.126;8.450;2022-12-19T13:05:53;38.10;;;14.05;;
29412;SDS011;16389;50.126;8.450;2022-12-19T13:08:36;20.98;;;12.93;;
29412;SDS011;16389;50.126;8.450;2022-12-19T13:14:01;22.52;;;11.70;;
29412;SDS011;16389;50.126;8.450;2022-12-19T13:24:53;25.75;;;12.85;;
29412;SDS011;16389;50.126;8.450;2022-12-19T13:32:14;36.70;;;14.10;;
29412;SDS011;16389;50.126;8.450;2022-12-19T13:34:49;30.75;;;14.45;;
29412;SDS011;16389;50.126;8.450;2022-12-19T13:37:27;27.45;;;12.98;;
29412;SDS011;16389;50.126;8.450;2022-12-19T13:42:23;22.15;;;13.20;;
29412;SDS011;16389;50.126;8.450;2022-12-19T13:45:14;23.05;;;10.88;;
29412;SDS011;16389;50.126;8.450;2022-12-19T13:47:48;29.50;;;14.00;;
29412;SDS011;16389;50.126;8.450;2022-12-19T13:50:25;35.85;;;14.05;;
29412;SDS011;16389;50.126;8.450;2022-12-19T13:52:54;29.05;;;12.98;;
29412;SDS011;16389;50.126;8.450;2022-12-19T13:55:20;26.35;;;13.20;;
29412;SDS011;16389;50.126;8.450;2022-12-19T13:57:46;29.77;;;14.77;;
29412;SDS011;16389;50.126;8.450;2022-12-19T14:00:16;28.05;;;13.32;;
29412;SDS011;16389;50.126;8.450;2022-12-19T14:02:53;26.30;;;12.70;;
29412;SDS011;16389;50.126;8.450;2022-12-19T14:05:22;22.25;;;11.55;;
29412;SDS011;16389;50.126;8.450;2022-12-19T14:07:48;25.90;;;12.73;;
29412;SDS011;16389;50.126;8.450;2022-12-19T14:10:17;26.63;;;13.75;;
29412;SDS011;16389;50.126;8.450;2022-12-19T14:12:45;30.17;;;13.38;;
29412;SDS011;16389;50.126;8.450;2022-12-19T14:15:35;33.05;;;14.85;;
29412;SDS011;16389;50.126;8.450;2022-12-19T14:21:05;34.38;;;13.43;;
29412;SDS011;16389;50.126;8.450;2022-12-19T14:23:37;26.35;;;13.00;;
29412;SDS011;16389;50.126;8.450;2022-12-19T14:26:03;34.10;;;13.90;;
29412;SDS011;16389;50.126;8.450;2022-12-19T14:28:40;32.78;;;13.60;;
29412;SDS011;16389;50.126;8.450;2022-12-19T14:31:11;29.05;;;12.50;;
29412;SDS011;16389;50.126;8.450;2022-12-19T14:33:41;26.20;;;12.23;;
29412;SDS011;16389;50.126;8.450;2022-12-19T14:36:11;30.75;;;14.45;;
29412;SDS011;16389;50.126;8.450;2022-12-19T14:38:38;37.85;;;13.77;;
29412;SDS011;16389;50.126;8.450;2022-12-19T14:41:06;33.17;;;15.00;;
29412;SDS011;16389;50.126;8.450;2022-12-19T14:44:22;27.45;;;13.63;;
29412;SDS011;16389;50.126;8.450;2022-12-19T14:47:13;31.33;;;13.68;;
29412;SDS011;16389;50.126;8.450;2022-12-19T14:49:50;27.38;;;12.77;;
29412;SDS011;16389;50.126;8.450;2022-12-19T14:52:33;34.63;;;15.43;;
29412;SDS011;16389;50.126;8.450;2022-12-19T14:57:45;27.05;;;12.25;;
29412;SDS011;16389;50.126;8.450;2022-12-19T15:00:22;24.17;;;12.73;;
29412;SDS011;16389;50.126;8.450;2022-12-19T15:02:53;32.47;;;13.02;;
29412;SDS011;16389;50.126;8.450;2022-12-19T15:05:21;32.33;;;14.20;;
29412;SDS011;16389;50.126;8.450;2022-12-19T15:07:48;29.50;;;13.50;;
29412;SDS011;16389;50.126;8.450;2022-12-19T15:10:17;32.88;;;13.95;;
29412;SDS011;16389;50.126;8.450;2022-12-19T15:12:48;38.30;;;14.93;;
29412;SDS011;16389;50.126;8.450;2022-12-19T15:18:25;21.13;;;11.48;;
29412;SDS011;16389;50.126;8.450;2022-12-19T15:21:01;26.85;;;13.45;;
29412;SDS011;16389;50.126;8.450;2022-12-19T15:23:28;29.08;;;12.80;;
29412;SDS011;16389;50.126;8.450;2022-12-19T15:25:55;34.63;;;14.60;;
29412;SDS011;16389;50.126;8.450;2022-12-19T15:28:26;43.05;;;14.35;;
29412;SDS011;16389;50.126;8.450;2022-12-19T15:31:01;26.75;;;13.77;;
29412;SDS011;16389;50.126;8.450;2022-12-19T15:33:30;25.55;;;12.82;;
29412;SDS011;16389;50.126;8.450;2022-12-19T15:35:56;30.20;;;11.85;;
29412;SDS011;16389;50.126;8.450;2022-12-19T15:38:21;30.85;;;12.80;;
29412;SDS011;16389;50.126;8.450;2022-12-19T15:40:47;27.88;;;12.63;;
29412;SDS011;16389;50.126;8.450;2022-12-19T15:43:16;29.50;;;13.68;;
29412;SDS011;16389;50.126;8.450;2022-12-19T15:45:45;24.00;;;12.05;;
29412;SDS011;16389;50.126;8.450;2022-12-19T15:48:14;31.42;;;13.38;;
29412;SDS011;16389;50.126;8.450;2022-12-19T15:50:40;27.65;;;13.20;;
29412;SDS011;16389;50.126;8.450;2022-12-19T15:53:20;25.40;;;12.50;;
29412;SDS011;16389;50.126;8.450;2022-12-19T15:55:54;37.60;;;15.40;;
29412;SDS011;16389;50.126;8.450;2022-12-19T15:58:21;35.92;;;13.57;;
29412;SDS011;16389;50.126;8.450;2022-12-19T16:00:51;28.98;;;12.80;;
29412;SDS011;16389;50.126;8.450;2022-12-19T16:03:19;35.88;;;13.80;;
29412;SDS011;16389;50.126;8.450;2022-12-19T16:05:45;36.03;;;13.57;;
29412;SDS011;16389;50.126;8.450;2022-12-19T16:08:12;26.70;;;12.88;;
29412;SDS011;16389;50.126;8.450;2022-12-19T16:10:40;35.20;;;14.13;;
29412;SDS011;16389;50.126;8.450;2022-12-19T16:13:08;35.72;;;11.95;;
29412;SDS011;16389;50.126;8.450;2022-12-19T16:15:44;32.35;;;13.70;;
29412;SDS011;16389;50.126;8.450;2022-12-19T16:18:10;38.90;;;13.18;;
29412;SDS011;16389;50.126;8.450;2022-12-19T16:20:38;40.65;;;14.93;;
29412;SDS011;16389;50.126;8.450;2022-12-19T16:23:05;33.00;;;13.60;;
29412;SDS011;16389;50.126;8.450;2022-12-19T16:28:05;27.13;;;11.90;;
29412;SDS011;16389;50.126;8.450;2022-12-19T16:30:33;25.92;;;11.80;;
29412;SDS011;16389;50.126;8.450;2022-12-19T16:32:59;31.20;;;13.23;;
29412;SDS011;16389;50.126;8.450;2022-12-19T16:35:26;25.85;;;12.13;;
29412;SDS011;16389;50.126;8.450;2022-12-19T16:37:53;29.55;;;14.48;;
29412;SDS011;16389;50.126;8.450;2022-12-19T16:40:22;26.73;;;13.07;;
29412;SDS011;16389;50.126;8.450;2022-12-19T16:42:54;25.73;;;13.02;;
29412;SDS011;16389;50.126;8.450;2022-12-19T16:45:23;30.10;;;12.88;;
29412;SDS011;16389;50.126;8.450;2022-12-19T16:47:50;28.05;;;12.48;;
29412;SDS011;16389;50.126;8.450;2022-12-19T16:50:24;31.52;;;14.15;;
29412;SDS011;16389;50.126;8.450;2022-12-19T16:52:52;26.85;;;13.48;;
29412;SDS011;16389;50.126;8.450;2022-12-19T16:55:17;22.42;;;12.02;;
29412;SDS011;16389;50.126;8.450;2022-12-19T16:57:44;33.72;;;12.10;;
29412;SDS011;16389;50.126;8.450;2022-12-19T17:00:14;32.97;;;13.60;;